Time;durP1;ratioP1;P1;durP2;ratioP2;P2;SDS_P1;SDS_P2;PMS_P1;PMS_P2;Temp;Humidity;BMP_temperature;BMP_pressure;BME280_temperature;BME280_humidity;BME280_pressure;Samples;Min_cycle;Max_cycle;Signal;HPM_P1;HPM_P2
2021/10/05 00:00:58;;;;;;;3.40;3.10;;;16.30;42.50;;;;;;10403767;28;20222;-74
2021/10/05 00:06:02;;;;;;;2.43;2.30;;;16.30;42.60;;;;;;10398263;28;20252;-74
2021/10/05 00:11:07;;;;;;;3.03;2.83;;;16.30;42.90;;;;;;10404727;28;20225;-74
2021/10/05 00:16:10;;;;;;;3.03;2.83;;;16.40;42.70;;;;;;10398580;28;20240;-74
2021/10/05 00:21:15;;;;;;;2.97;2.77;;;16.40;42.80;;;;;;10405333;28;20229;-73
2021/10/05 00:26:18;;;;;;;3.70;3.40;;;16.50;43.10;;;;;;10403365;28;20320;-74
2021/10/05 00:31:21;;;;;;;3.00;2.80;;;16.50;42.90;;;;;;10399147;28;20234;-73
2021/10/05 00:36:26;;;;;;;3.20;3.00;;;16.50;42.80;;;;;;10396636;28;20315;-74
2021/10/05 00:41:29;;;;;;;3.27;3.07;;;16.50;43.10;;;;;;10396974;28;20222;-75
2021/10/05 00:46:35;;;;;;;3.17;2.87;;;16.60;42.90;;;;;;10397010;28;21077;-74
2021/10/05 00:51:39;;;;;;;3.23;3.03;;;16.50;42.90;;;;;;10399277;28;20217;-74
2021/10/05 00:56:43;;;;;;;3.73;3.43;;;16.50;43.00;;;;;;10391575;28;20229;-74
2021/10/05 01:01:46;;;;;;;3.70;3.40;;;16.60;42.90;;;;;;10393446;28;20225;-74
2021/10/05 01:06:57;;;;;;;4.20;3.80;;;16.50;42.70;;;;;;10393003;28;20279;-74
2021/10/05 01:12:01;;;;;;;4.07;3.77;;;16.50;43.60;;;;;;10397958;28;20218;-74
2021/10/05 01:17:05;;;;;;;3.93;3.63;;;16.50;42.90;;;;;;10405725;28;20283;-73
2021/10/05 01:22:10;;;;;;;4.43;4.07;;;16.50;43.00;;;;;;10400381;28;20222;-74
2021/10/05 01:27:13;;;;;;;4.83;4.30;;;16.40;43.30;;;;;;10395081;28;20246;-74
2021/10/05 01:32:16;;;;;;;4.27;3.87;;;16.40;43.00;;;;;;10401658;28;20845;-74
2021/10/05 01:37:21;;;;;;;4.93;4.53;;;16.40;43.20;;;;;;10392215;28;20283;-74
2021/10/05 01:42:24;;;;;;;4.03;3.70;;;16.40;43.70;;;;;;10397036;28;20226;-73
2021/10/05 01:47:27;;;;;;;3.90;3.60;;;16.40;43.30;;;;;;10398550;28;20235;-74
2021/10/05 01:52:32;;;;;;;4.60;4.30;;;16.40;43.50;;;;;;10391575;28;20225;-74
2021/10/05 01:57:35;;;;;;;5.20;4.13;;;16.40;43.70;;;;;;10396883;28;20682;-74
2021/10/05 02:02:38;;;;;;;5.10;4.70;;;16.40;43.30;;;;;;10392600;28;20240;-74
2021/10/05 02:07:43;;;;;;;5.87;4.90;;;16.40;43.50;;;;;;10395116;28;20229;-74
2021/10/05 02:12:46;;;;;;;5.00;4.63;;;16.40;43.80;;;;;;10391022;28;20224;-74
2021/10/05 02:17:50;;;;;;;5.60;5.10;;;16.40;43.50;;;;;;10393641;28;20876;-74
2021/10/05 02:22:54;;;;;;;5.60;5.10;;;16.40;43.60;;;;;;10396923;28;20732;-74
2021/10/05 02:27:59;;;;;;;5.57;5.07;;;16.30;43.90;;;;;;10393822;28;20225;-74
2021/10/05 02:33:02;;;;;;;6.13;5.53;;;16.30;43.60;;;;;;10395004;28;20700;-73
2021/10/05 02:38:06;;;;;;;5.40;4.90;;;16.30;43.70;;;;;;10394578;28;20626;-73
2021/10/05 02:43:09;;;;;;;6.03;5.43;;;16.30;44.20;;;;;;10397940;28;20221;-74
2021/10/05 02:48:12;;;;;;;5.27;4.77;;;16.30;44.00;;;;;;10392799;28;20257;-74
2021/10/05 02:53:17;;;;;;;5.97;5.47;;;16.30;44.00;;;;;;10394607;28;20602;-74
2021/10/05 02:58:20;;;;;;;5.40;5.00;;;16.40;44.40;;;;;;10392567;28;20233;-74
2021/10/05 03:03:24;;;;;;;5.37;4.97;;;16.40;44.10;;;;;;10398815;28;20233;-74
2021/10/05 03:08:29;;;;;;;4.83;4.43;;;16.40;44.20;;;;;;10392711;28;20313;-74
2021/10/05 03:13:35;;;;;;;5.63;4.97;;;16.40;44.50;;;;;;10391075;28;20236;-75
2021/10/05 03:18:41;;;;;;;5.03;4.63;;;16.50;44.30;;;;;;10397409;28;20232;-74
2021/10/05 03:23:45;;;;;;;6.30;5.70;;;16.50;44.10;;;;;;10394851;28;20609;-74
2021/10/05 03:28:49;;;;;;;6.43;5.83;;;16.50;44.50;;;;;;10396332;28;21443;-74
2021/10/05 03:33:52;;;;;;;6.40;5.80;;;16.50;44.20;;;;;;10391524;28;20253;-74
2021/10/05 03:38:57;;;;;;;8.00;6.60;;;16.50;44.00;;;;;;10398212;28;20268;-74
2021/10/05 03:44:01;;;;;;;6.50;5.90;;;16.40;44.50;;;;;;10398273;28;20232;-74
2021/10/05 03:49:04;;;;;;;7.77;6.23;;;16.40;44.00;;;;;;10396324;28;20687;-76
2021/10/05 03:54:09;;;;;;;5.77;5.27;;;16.30;44.10;;;;;;10388038;28;20234;-74
2021/10/05 03:59:15;;;;;;;6.50;5.90;;;16.30;44.70;;;;;;10403442;28;20242;-74
2021/10/05 04:04:18;;;;;;;6.00;5.50;;;16.20;45.10;;;;;;10396131;28;20225;-74
2021/10/05 04:09:23;;;;;;;6.83;6.10;;;16.10;44.60;;;;;;10397952;28;20685;-74
2021/10/05 04:14:26;;;;;;;6.57;5.97;;;16.10;45.30;;;;;;10398520;28;20683;-75
2021/10/05 04:19:29;;;;;;;6.87;6.27;;;16.10;45.30;;;;;;10395583;28;20679;-75
2021/10/05 04:24:34;;;;;;;6.87;6.17;;;16.10;45.30;;;;;;10392556;28;20234;-75
2021/10/05 04:29:38;;;;;;;6.70;6.07;;;16.20;45.40;;;;;;10394448;28;20229;-75
2021/10/05 04:34:43;;;;;;;6.87;6.27;;;16.10;45.30;;;;;;10390880;28;20317;-75
2021/10/05 04:39:47;;;;;;;7.73;7.03;;;16.20;45.40;;;;;;10392986;28;20239;-74
2021/10/05 04:44:51;;;;;;;7.70;7.00;;;16.20;45.40;;;;;;10394609;28;20658;-74
2021/10/05 04:49:54;;;;;;;7.50;6.80;;;16.10;45.30;;;;;;10393291;28;20229;-74
2021/10/05 04:54:59;;;;;;;7.10;6.40;;;16.10;45.30;;;;;;10390916;28;20618;-74
2021/10/05 05:00:03;;;;;;;6.30;5.70;;;16.00;45.20;;;;;;10396550;28;20220;-74
2021/10/05 05:05:08;;;;;;;6.60;6.00;;;16.00;45.20;;;;;;10403949;28;20300;-75
2021/10/05 05:10:12;;;;;;;8.17;6.67;;;15.90;45.20;;;;;;10401386;28;20222;-74
2021/10/05 05:15:16;;;;;;;6.77;6.17;;;15.90;45.50;;;;;;10392245;28;20232;-74
2021/10/05 05:20:19;;;;;;;7.33;6.57;;;15.90;45.10;;;;;;10391071;28;20629;-74
2021/10/05 05:25:24;;;;;;;6.53;5.93;;;15.90;45.70;;;;;;10395662;28;20309;-74
2021/10/05 05:30:28;;;;;;;7.03;6.43;;;16.00;46.00;;;;;;10389203;28;20230;-74
2021/10/05 05:35:31;;;;;;;7.20;6.60;;;16.00;45.50;;;;;;10393173;28;20709;-74
2021/10/05 05:40:36;;;;;;;6.97;6.37;;;16.00;45.50;;;;;;10386984;28;20226;-74
2021/10/05 05:45:39;;;;;;;7.97;7.27;;;16.10;46.10;;;;;;10399718;28;20222;-74
2021/10/05 05:50:43;;;;;;;7.70;7.00;;;16.10;45.70;;;;;;10396336;28;20632;-74
2021/10/05 05:55:47;;;;;;;7.70;7.00;;;16.20;45.40;;;;;;10393277;28;20228;-73
2021/10/05 06:00:50;;;;;;;8.67;7.97;;;16.20;46.60;;;;;;10393805;28;20229;-74
2021/10/05 06:05:54;;;;;;;9.37;8.57;;;16.20;45.40;;;;;;10396879;28;20281;-75
2021/10/05 06:10:58;;;;;;;10.93;9.83;;;16.30;45.50;;;;;;10395702;28;20221;-74
2021/10/05 06:16:01;;;;;;;9.77;8.87;;;16.20;45.50;;;;;;10392589;28;20308;-74
2021/10/05 06:21:05;;;;;;;9.83;8.97;;;16.20;45.40;;;;;;10397466;28;20225;-74
2021/10/05 06:26:09;;;;;;;9.53;8.63;;;16.10;45.30;;;;;;10397558;28;20237;-74
2021/10/05 06:31:13;;;;;;;9.20;8.30;;;16.10;46.10;;;;;;10392237;28;20261;-74
2021/10/05 06:36:16;;;;;;;8.80;8.00;;;16.00;45.70;;;;;;10397472;28;20230;-75
2021/10/05 06:41:21;;;;;;;7.90;7.20;;;16.00;45.90;;;;;;10394734;28;20631;-75
2021/10/05 06:46:25;;;;;;;8.33;7.53;;;16.00;46.50;;;;;;10391572;28;20234;-74
2021/10/05 06:51:28;;;;;;;8.90;8.10;;;16.00;46.10;;;;;;10403694;28;20313;-73
2021/10/05 06:56:33;;;;;;;8.20;7.50;;;16.00;46.00;;;;;;10405535;28;20229;-73
2021/10/05 07:01:36;;;;;;;8.50;7.80;;;16.00;46.30;;;;;;10395375;28;20244;-74
2021/10/05 07:06:39;;;;;;;8.33;7.63;;;16.00;46.00;;;;;;10401931;28;20230;-75
2021/10/05 07:11:46;;;;;;;8.67;7.87;;;16.00;46.00;;;;;;10396235;28;20226;-75
2021/10/05 07:16:50;;;;;;;8.47;7.57;;;16.10;46.70;;;;;;10394394;28;20237;-74
2021/10/05 07:22:01;;;;;;;7.70;7.00;;;16.10;46.30;;;;;;10399413;28;20726;-74
2021/10/05 07:27:06;;;;;;;8.70;7.90;;;16.10;46.30;;;;;;10400966;28;20240;-75
2021/10/05 07:32:09;;;;;;;8.80;8.00;;;16.10;46.80;;;;;;10392668;28;20248;-74
2021/10/05 07:37:13;;;;;;;10.23;9.13;;;16.10;46.70;;;;;;10401796;28;20778;-74
2021/10/05 07:42:20;;;;;;;7.90;7.20;;;16.10;46.70;;;;;;10398607;28;20222;-73
2021/10/05 07:47:23;;;;;;;13.00;11.83;;;16.10;47.10;;;;;;10399484;28;20658;-74
2021/10/05 07:52:26;;;;;;;10.07;9.17;;;16.10;46.70;;;;;;10396714;28;20313;-74
2021/10/05 07:57:31;;;;;;;9.17;8.23;;;16.10;46.90;;;;;;10405315;28;20309;-74
2021/10/05 08:02:34;;;;;;;10.50;9.53;;;16.10;47.30;;;;;;10397856;28;20221;-74
2021/10/05 08:07:38;;;;;;;10.70;9.80;;;16.20;46.70;;;;;;10399331;28;20233;-74
2021/10/05 08:12:42;;;;;;;10.83;9.83;;;16.20;46.90;;;;;;10396084;28;20226;-76
2021/10/05 08:17:45;;;;;;;11.57;10.47;;;16.10;47.00;;;;;;10397202;28;20684;-74
2021/10/05 08:22:49;;;;;;;10.57;9.57;;;16.20;46.70;;;;;;10394198;28;20234;-74
2021/10/05 08:27:54;;;;;;;11.23;10.20;;;16.20;46.80;;;;;;10392944;28;20229;-74
2021/10/05 08:32:57;;;;;;;10.60;9.70;;;16.20;47.20;;;;;;10395756;28;20214;-74
2021/10/05 08:38:03;;;;;;;10.07;9.20;;;16.20;46.90;;;;;;10401741;28;20719;-74
2021/10/05 08:43:08;;;;;;;10.83;9.77;;;16.30;47.00;;;;;;10397033;28;20229;-73
2021/10/05 08:48:11;;;;;;;9.17;8.37;;;16.20;46.90;;;;;;10397819;28;20720;-74
2021/10/05 08:53:14;;;;;;;9.47;8.67;;;16.30;46.70;;;;;;10388646;28;20233;-75
2021/10/05 08:58:19;;;;;;;10.03;9.13;;;16.30;46.80;;;;;;10397954;28;20234;-74
2021/10/05 09:03:23;;;;;;;9.57;8.67;;;16.30;47.00;;;;;;10394757;28;20234;-73
2021/10/05 09:08:28;;;;;;;10.50;9.50;;;16.30;46.90;;;;;;10393686;28;20623;-73
2021/10/05 09:13:35;;;;;;;10.00;9.10;;;16.30;46.70;;;;;;10392093;28;20239;-74
2021/10/05 09:18:38;;;;;;;10.10;9.20;;;16.30;47.50;;;;;;10388244;28;20226;-74
2021/10/05 09:23:52;;;;;;;10.53;9.63;;;16.30;47.30;;;;;;10392748;28;20238;-74
2021/10/05 09:29:15;;;;;;;9.77;8.80;;;16.30;48.20;;;;;;10391428;28;20615;-75
2021/10/05 09:34:18;;;;;;;10.00;9.10;;;16.40;48.00;;;;;;10390007;28;20244;-74
2021/10/05 09:39:22;;;;;;;9.80;8.90;;;16.50;47.40;;;;;;10398205;28;20237;-75
2021/10/05 09:44:29;;;;;;;10.00;9.20;;;16.50;47.10;;;;;;10394564;28;20727;-74
2021/10/05 09:49:42;;;;;;;9.47;8.63;;;16.60;47.70;;;;;;10392668;28;20229;-74
2021/10/05 09:54:45;;;;;;;9.23;8.43;;;16.70;48.00;;;;;;10391816;28;20787;-74
2021/10/05 09:59:50;;;;;;;9.87;8.97;;;16.70;47.10;;;;;;10389955;28;20717;-74
2021/10/05 10:04:53;;;;;;;9.67;8.73;;;16.70;47.10;;;;;;10399705;28;20217;-75
2021/10/05 10:09:56;;;;;;;8.93;8.20;;;16.80;46.80;;;;;;10400157;28;20272;-74
2021/10/05 10:15:01;;;;;;;7.97;7.27;;;16.80;46.90;;;;;;10394490;28;20226;-74
2021/10/05 10:20:06;;;;;;;8.57;7.77;;;16.90;47.30;;;;;;10400535;28;20736;-74
2021/10/05 10:25:23;;;;;;;8.93;8.13;;;16.90;47.10;;;;;;10392964;28;20230;-74
2021/10/05 10:30:29;;;;;;;8.43;7.73;;;17.00;47.30;;;;;;10391811;28;20312;-74
2021/10/05 10:35:33;;;;;;;8.23;7.47;;;17.00;46.90;;;;;;10389946;28;20229;-74
2021/10/05 10:40:37;;;;;;;8.47;7.67;;;17.00;47.10;;;;;;10391178;28;20228;-74
2021/10/05 10:45:48;;;;;;;8.13;7.33;;;17.10;47.60;;;;;;10402877;28;20611;-75
2021/10/05 10:50:56;;;;;;;7.50;6.47;;;17.20;47.40;;;;;;10398632;28;20217;-75
2021/10/05 10:56:00;;;;;;;7.27;6.67;;;17.40;46.70;;;;;;10385043;28;20849;-74
2021/10/05 11:01:04;;;;;;;7.43;6.73;;;17.40;46.50;;;;;;10384759;28;20237;-74
2021/10/05 11:06:14;;;;;;;6.63;6.03;;;17.50;46.50;;;;;;10388395;28;20233;-74
2021/10/05 11:11:20;;;;;;;5.97;5.47;;;17.50;46.50;;;;;;10383764;28;20225;-74
2021/10/05 11:16:25;;;;;;;5.50;5.10;;;17.50;46.50;;;;;;10383299;28;20698;-74
2021/10/05 11:21:31;;;;;;;5.87;5.27;;;17.60;46.60;;;;;;10391398;28;20234;-75
2021/10/05 11:26:37;;;;;;;6.13;5.53;;;17.70;46.70;;;;;;10383218;28;20563;-74
2021/10/05 11:31:49;;;;;;;5.47;4.97;;;17.80;46.80;;;;;;10392136;28;20229;-74
2021/10/05 11:36:52;;;;;;;5.17;4.77;;;17.90;46.10;;;;;;10394310;28;20233;-74
2021/10/05 11:41:57;;;;;;;4.57;4.27;;;18.00;46.30;;;;;;10405779;28;20221;-74
2021/10/05 11:47:04;;;;;;;4.80;4.40;;;18.00;45.90;;;;;;10406093;28;20230;-74
2021/10/05 11:52:16;;;;;;;4.93;4.53;;;18.10;46.00;;;;;;10389198;28;20226;-74
2021/10/05 11:57:22;;;;;;;4.47;4.17;;;18.10;45.60;;;;;;10389878;28;20241;-74
2021/10/05 12:02:26;;;;;;;4.93;4.50;;;18.10;45.30;;;;;;10394221;28;20236;-74
2021/10/05 12:07:30;;;;;;;4.23;3.93;;;18.20;45.30;;;;;;10391322;28;20234;-74
2021/10/05 12:12:35;;;;;;;4.50;4.10;;;18.20;45.10;;;;;;10389262;28;20233;-74
2021/10/05 12:17:40;;;;;;;4.33;4.03;;;18.20;45.20;;;;;;10394227;28;20240;-74
2021/10/05 12:22:47;;;;;;;4.60;4.20;;;18.20;44.70;;;;;;10399884;28;20230;-73
2021/10/05 12:27:52;;;;;;;3.90;3.60;;;18.20;44.40;;;;;;10392954;28;20796;-74
2021/10/05 12:33:00;;;;;;;4.00;3.70;;;18.20;44.60;;;;;;10384105;28;20217;-73
2021/10/05 12:38:08;;;;;;;4.10;3.80;;;18.20;44.70;;;;;;10391619;28;20229;-73
2021/10/05 12:43:39;;;;;;;3.63;3.43;;;18.30;44.90;;;;;;10391559;28;20575;-74
2021/10/05 12:48:48;;;;;;;3.67;3.47;;;18.30;44.90;;;;;;10385267;28;20218;-72
2021/10/05 12:53:55;;;;;;;4.30;4.00;;;18.30;44.60;;;;;;10387513;28;20230;-73
2021/10/05 12:58:59;;;;;;;4.03;3.73;;;18.30;44.70;;;;;;10389163;28;20599;-73
2021/10/05 13:04:04;;;;;;;4.10;3.80;;;18.40;44.80;;;;;;10389168;28;20232;-73
2021/10/05 13:09:09;;;;;;;3.90;3.60;;;18.40;44.60;;;;;;10387215;28;20229;-73
2021/10/05 13:14:12;;;;;;;4.30;4.00;;;18.40;44.50;;;;;;10383655;28;20230;-73
2021/10/05 13:19:21;;;;;;;4.63;4.23;;;18.40;44.60;;;;;;10383412;28;20740;-73
2021/10/05 13:24:24;;;;;;;4.60;4.27;;;18.40;44.40;;;;;;10387981;28;20240;-73
2021/10/05 13:29:27;;;;;;;4.40;3.63;;;18.40;44.40;;;;;;10387993;28;20226;-74
2021/10/05 13:34:32;;;;;;;3.83;3.53;;;18.50;44.60;;;;;;10383703;28;20723;-73
2021/10/05 13:39:35;;;;;;;4.87;4.47;;;18.40;44.60;;;;;;10382693;28;20237;-74
2021/10/05 13:44:39;;;;;;;4.30;3.90;;;18.40;44.60;;;;;;10388532;28;20229;-73
2021/10/05 13:49:43;;;;;;;4.10;3.80;;;18.40;44.90;;;;;;10387409;28;20222;-73
2021/10/05 13:54:46;;;;;;;5.07;4.10;;;18.40;45.80;;;;;;10390571;28;20221;-73
2021/10/05 13:59:50;;;;;;;6.83;6.23;;;18.40;44.80;;;;;;10388181;28;20321;-73
2021/10/05 14:04:55;;;;;;;6.37;5.77;;;18.50;45.00;;;;;;10384754;28;20605;-73
2021/10/05 14:09:59;;;;;;;5.57;4.90;;;18.40;44.70;;;;;;10390922;28;20217;-73
2021/10/05 14:15:02;;;;;;;4.23;3.83;;;18.40;44.90;;;;;;10386540;28;20225;-73
2021/10/05 14:20:10;;;;;;;4.43;4.10;;;18.40;45.10;;;;;;10386636;28;20769;-73
2021/10/05 14:25:18;;;;;;;4.47;3.77;;;18.40;45.30;;;;;;10387388;28;20229;-73
2021/10/05 14:30:21;;;;;;;5.33;4.40;;;18.40;45.10;;;;;;10393382;28;20222;-73
2021/10/05 14:35:26;;;;;;;7.63;6.90;;;18.50;45.20;;;;;;10382254;28;20240;-73
2021/10/05 14:40:29;;;;;;;6.40;5.83;;;18.50;45.00;;;;;;10382896;28;20241;-73
2021/10/05 14:45:33;;;;;;;5.60;5.10;;;18.50;45.20;;;;;;10388410;28;20762;-73
2021/10/05 14:50:38;;;;;;;5.33;4.80;;;18.60;45.20;;;;;;10386152;28;20304;-73
2021/10/05 14:55:41;;;;;;;5.07;4.57;;;18.60;45.00;;;;;;10384219;28;20229;-73
2021/10/05 15:00:44;;;;;;;5.70;4.13;;;18.60;45.00;;;;;;10386724;28;20598;-73
2021/10/05 15:05:49;;;;;;;4.87;4.40;;;18.60;45.00;;;;;;10386035;28;20264;-74
2021/10/05 15:10:52;;;;;;;4.27;3.93;;;18.50;45.30;;;;;;10395656;28;20230;-73
2021/10/05 15:15:55;;;;;;;4.30;3.90;;;18.50;45.30;;;;;;10392570;28;20329;-74
2021/10/05 15:21:00;;;;;;;4.17;3.80;;;18.50;45.30;;;;;;10398128;28;20634;-74
2021/10/05 15:26:04;;;;;;;4.17;3.83;;;18.50;45.30;;;;;;10396450;28;20226;-73
2021/10/05 15:31:08;;;;;;;7.77;7.10;;;18.40;45.30;;;;;;10394405;28;20218;-73
2021/10/05 15:36:13;;;;;;;6.50;5.90;;;18.30;45.60;;;;;;10391910;28;20748;-76
2021/10/05 15:41:16;;;;;;;6.77;5.90;;;18.30;46.00;;;;;;10392050;28;20229;-73
2021/10/05 15:46:19;;;;;;;5.73;5.23;;;18.20;45.90;;;;;;10390058;28;20320;-75
2021/10/05 15:51:31;;;;;;;8.43;7.60;;;18.20;45.90;;;;;;10390939;28;20601;-73
2021/10/05 15:56:35;;;;;;;7.00;6.40;;;18.10;46.20;;;;;;10388574;28;20607;-73
2021/10/05 16:01:38;;;;;;;6.90;6.10;;;18.10;45.90;;;;;;10389159;28;20237;-74
2021/10/05 16:06:43;;;;;;;6.40;5.90;;;17.90;46.10;;;;;;10394215;28;20284;-73
2021/10/05 16:11:46;;;;;;;9.00;8.20;;;17.90;46.80;;;;;;10401219;28;20218;-73
2021/10/05 16:16:49;;;;;;;13.23;12.10;;;17.90;46.30;;;;;;10395215;28;20241;-73
2021/10/05 16:21:54;;;;;;;10.00;9.10;;;17.90;46.90;;;;;;10385955;28;20617;-73
2021/10/05 16:26:57;;;;;;;8.77;8.00;;;17.90;46.90;;;;;;10388753;28;20221;-73
2021/10/05 16:32:00;;;;;;;7.93;7.07;;;18.00;47.00;;;;;;10387014;28;20221;-73
2021/10/05 16:37:05;;;;;;;9.27;8.37;;;18.00;46.60;;;;;;10385546;28;20244;-73
2021/10/05 16:42:08;;;;;;;7.90;7.17;;;18.00;47.00;;;;;;10389494;28;20230;-73
2021/10/05 16:47:11;;;;;;;7.40;6.80;;;17.90;46.90;;;;;;10388314;28;20235;-73
2021/10/05 16:52:16;;;;;;;7.90;7.10;;;17.90;46.50;;;;;;10400171;28;20280;-73
2021/10/05 16:57:19;;;;;;;5.43;5.03;;;17.90;46.90;;;;;;10403272;28;20230;-74
2021/10/05 17:02:22;;;;;;;5.97;5.27;;;17.90;46.90;;;;;;10399141;28;20251;-73
2021/10/05 17:07:27;;;;;;;7.53;5.40;;;17.90;46.90;;;;;;10404983;28;20793;-73
2021/10/05 17:12:30;;;;;;;9.30;6.00;;;17.90;46.90;;;;;;10401634;28;20233;-73
2021/10/05 17:17:34;;;;;;;6.13;5.50;;;18.00;47.00;;;;;;10403901;28;20785;-73
2021/10/05 17:22:40;;;;;;;7.70;7.00;;;17.90;46.30;;;;;;10404779;28;20603;-73
2021/10/05 17:27:44;;;;;;;5.50;5.07;;;17.90;46.40;;;;;;10401703;28;20233;-73
2021/10/05 17:32:47;;;;;;;3.80;3.50;;;17.80;46.20;;;;;;10398966;28;20230;-73
2021/10/05 17:37:52;;;;;;;4.80;4.40;;;17.60;46.60;;;;;;10402392;28;20222;-73
2021/10/05 17:42:55;;;;;;;5.10;4.70;;;17.50;46.50;;;;;;10400930;28;20260;-73
2021/10/05 17:47:59;;;;;;;4.67;4.27;;;17.40;46.50;;;;;;10396644;28;20938;-73
2021/10/05 17:53:03;;;;;;;3.70;3.40;;;17.40;46.50;;;;;;10390599;28;20251;-73
2021/10/05 17:58:07;;;;;;;3.87;3.57;;;17.30;46.80;;;;;;10390031;28;20280;-73
2021/10/05 18:03:10;;;;;;;4.00;3.70;;;17.20;46.30;;;;;;10402340;28;20248;-73
2021/10/05 18:08:15;;;;;;;3.80;3.50;;;17.20;46.80;;;;;;10390151;28;20720;-73
2021/10/05 18:13:19;;;;;;;4.60;3.60;;;17.20;47.00;;;;;;10387538;28;20261;-73
2021/10/05 18:18:22;;;;;;;3.83;3.53;;;17.10;46.80;;;;;;10389171;28;20284;-73
2021/10/05 18:23:27;;;;;;;3.90;3.60;;;17.10;46.80;;;;;;10397708;28;20331;-73
2021/10/05 18:28:30;;;;;;;4.60;4.20;;;17.00;47.30;;;;;;10396686;28;20271;-73
2021/10/05 18:33:34;;;;;;;4.70;4.30;;;16.90;47.20;;;;;;10388687;28;20333;-74
2021/10/05 18:38:40;;;;;;;6.50;5.90;;;16.90;47.40;;;;;;10393638;28;20268;-73
2021/10/05 18:43:43;;;;;;;8.13;7.33;;;16.90;47.80;;;;;;10395273;28;20264;-74
2021/10/05 18:48:47;;;;;;;7.73;6.93;;;16.90;47.50;;;;;;10404382;28;20225;-74
2021/10/05 18:53:51;;;;;;;5.60;5.10;;;16.80;47.60;;;;;;10395331;28;20231;-74
2021/10/05 18:58:55;;;;;;;5.30;4.90;;;16.80;48.10;;;;;;10403573;28;20220;-74
2021/10/05 19:04:01;;;;;;;4.80;4.40;;;16.80;47.70;;;;;;10420941;28;20325;-73
2021/10/05 19:09:06;;;;;;;4.77;4.37;;;16.90;47.80;;;;;;10409908;28;20617;-74
2021/10/05 19:14:09;;;;;;;5.40;4.60;;;16.90;48.20;;;;;;10419564;28;20319;-73
2021/10/05 19:19:12;;;;;;;4.37;4.07;;;16.90;47.70;;;;;;10409216;28;20240;-73
2021/10/05 19:24:17;;;;;;;4.40;4.10;;;16.90;47.70;;;;;;10397289;28;20222;-74
2021/10/05 19:29:20;;;;;;;4.80;4.37;;;16.90;48.10;;;;;;10405932;28;20226;-74
2021/10/05 19:34:24;;;;;;;5.50;5.00;;;16.90;47.70;;;;;;10416089;28;20235;-73
2021/10/05 19:39:29;;;;;;;5.93;4.40;;;16.90;47.70;;;;;;10416447;28;20230;-73
2021/10/05 19:44:32;;;;;;;4.90;4.50;;;16.90;48.10;;;;;;10389949;28;20238;-73
2021/10/05 19:49:36;;;;;;;4.90;4.50;;;16.90;47.70;;;;;;10396581;28;20240;-73
2021/10/05 19:54:40;;;;;;;5.17;4.07;;;16.90;47.80;;;;;;10394135;28;20264;-74
2021/10/05 19:59:44;;;;;;;4.17;3.87;;;16.90;48.00;;;;;;10392482;28;20236;-74
2021/10/05 20:04:47;;;;;;;4.63;3.53;;;16.90;47.80;;;;;;10401946;28;20323;-73
2021/10/05 20:09:52;;;;;;;5.17;4.77;;;17.00;47.70;;;;;;10395076;28;20254;-73
2021/10/05 20:14:56;;;;;;;4.67;4.27;;;17.10;47.80;;;;;;10389816;28;20226;-74
2021/10/05 20:19:59;;;;;;;5.07;4.20;;;17.10;47.30;;;;;;10392336;28;20228;-73
2021/10/05 20:25:05;;;;;;;4.70;4.20;;;17.10;47.10;;;;;;10393571;28;20231;-74
2021/10/05 20:30:10;;;;;;;4.47;4.07;;;17.00;47.40;;;;;;10397607;28;20280;-73
2021/10/05 20:35:13;;;;;;;4.03;3.73;;;16.90;47.40;;;;;;10398298;28;20230;-73
2021/10/05 20:40:18;;;;;;;4.33;3.50;;;16.90;47.30;;;;;;10401372;28;20241;-73
2021/10/05 20:45:21;;;;;;;3.80;3.50;;;16.90;47.70;;;;;;10396041;28;21160;-73
2021/10/05 20:50:25;;;;;;;4.03;3.30;;;16.80;47.60;;;;;;10404284;28;20301;-73
2021/10/05 20:55:29;;;;;;;3.80;3.50;;;16.80;47.60;;;;;;10403050;28;20248;-73
2021/10/05 21:00:33;;;;;;;3.83;3.30;;;16.70;47.80;;;;;;10404689;28;20239;-72
2021/10/05 21:05:38;;;;;;;3.57;3.33;;;16.70;47.80;;;;;;10398417;28;20248;-73
2021/10/05 21:10:43;;;;;;;3.23;3.03;;;16.60;47.80;;;;;;10401383;28;20594;-74
2021/10/05 21:15:47;;;;;;;3.80;3.50;;;16.60;48.40;;;;;;10389394;28;20325;-72
2021/10/05 21:20:50;;;;;;;3.70;3.40;;;16.50;48.20;;;;;;10392297;28;20225;-74
2021/10/05 21:25:55;;;;;;;3.47;3.17;;;16.50;48.30;;;;;;10389122;28;20313;-73
2021/10/05 21:31:00;;;;;;;3.97;3.27;;;16.50;48.70;;;;;;10392593;28;20226;-73
2021/10/05 21:36:03;;;;;;;3.00;2.80;;;16.50;48.50;;;;;;10380708;28;20237;-73
2021/10/05 21:41:08;;;;;;;3.13;2.83;;;16.50;48.70;;;;;;10397698;28;21025;-73
2021/10/05 21:46:12;;;;;;;2.77;2.57;;;16.40;49.00;;;;;;10391997;28;20324;-73
2021/10/05 21:51:16;;;;;;;2.53;2.33;;;16.40;48.70;;;;;;10390171;28;20309;-74
2021/10/05 21:56:20;;;;;;;2.47;2.27;;;16.40;48.80;;;;;;10388664;28;20533;-73
2021/10/05 22:01:24;;;;;;;2.30;2.10;;;16.40;49.20;;;;;;10394650;28;20233;-73
2021/10/05 22:06:28;;;;;;;2.30;2.10;;;16.40;49.20;;;;;;10399089;28;20651;-73
2021/10/05 22:11:33;;;;;;;2.20;2.00;;;16.40;49.10;;;;;;10399310;28;20225;-72
2021/10/05 22:16:36;;;;;;;2.13;2.03;;;16.40;49.40;;;;;;10390199;28;20226;-72
2021/10/05 22:21:40;;;;;;;2.03;1.93;;;16.40;49.20;;;;;;10394190;28;20979;-72
2021/10/05 22:26:45;;;;;;;1.90;1.80;;;16.40;49.30;;;;;;10398196;28;20706;-73
2021/10/05 22:31:48;;;;;;;1.80;1.70;;;16.40;49.60;;;;;;10394497;28;20229;-73
2021/10/05 22:36:54;;;;;;;2.57;1.97;;;16.40;49.20;;;;;;10401028;28;20308;-73
2021/10/05 22:41:59;;;;;;;2.10;1.80;;;16.50;49.10;;;;;;10384411;28;20636;-73
2021/10/05 22:47:03;;;;;;;1.93;1.50;;;16.50;49.30;;;;;;10390863;28;20220;-73
2021/10/05 22:52:08;;;;;;;1.50;1.40;;;16.50;49.00;;;;;;10396138;28;20857;-73
2021/10/05 22:57:13;;;;;;;2.27;1.60;;;16.50;49.10;;;;;;10398876;28;20235;-73
2021/10/05 23:02:16;;;;;;;1.47;1.37;;;16.40;48.90;;;;;;10389412;28;20225;-73
2021/10/05 23:07:20;;;;;;;1.30;1.20;;;16.40;48.70;;;;;;10393973;28;20262;-73
2021/10/05 23:12:24;;;;;;;1.13;1.10;;;16.50;48.80;;;;;;10397953;28;20312;-73
2021/10/05 23:17:28;;;;;;;1.40;1.30;;;16.40;49.00;;;;;;10395669;28;20245;-73
2021/10/05 23:22:31;;;;;;;1.27;1.17;;;16.50;48.90;;;;;;10398060;28;20234;-73
2021/10/05 23:27:36;;;;;;;1.40;1.30;;;16.50;48.70;;;;;;10404459;28;20233;-73
2021/10/05 23:32:39;;;;;;;1.20;1.10;;;16.50;48.90;;;;;;10395483;28;20567;-73
2021/10/05 23:37:43;;;;;;;0.93;0.90;;;16.50;48.60;;;;;;10400214;28;20604;-72
2021/10/05 23:42:47;;;;;;;1.17;1.07;;;16.50;48.60;;;;;;10403813;28;20240;-73
2021/10/05 23:47:51;;;;;;;1.00;1.00;;;16.40;48.50;;;;;;10401508;28;20240;-74
2021/10/05 23:52:54;;;;;;;1.00;1.00;;;16.40;48.30;;;;;;10402254;28;20589;-73
2021/10/05 23:57:59;;;;;;;1.20;1.10;;;16.40;48.40;;;;;;10399887;28;20313;-74
